createdAt,value
2022-11-17T00:01:38.657Z,2.15
2022-11-17T00:04:08.376Z,6.63
2022-11-17T00:06:36.592Z,5.47
2022-11-17T00:09:04.887Z,2.83
2022-11-17T00:11:53.318Z,4.22
2022-11-17T00:14:36.849Z,5.72
2022-11-17T00:19:52.803Z,5.28
2022-11-17T00:22:21.239Z,4.93
2022-11-17T00:24:49.773Z,2.83
2022-11-17T00:27:18.484Z,6.60
2022-11-17T00:29:46.758Z,4.68
2022-11-17T00:32:34.128Z,2.20
2022-11-17T00:35:04.046Z,3.97
2022-11-17T00:37:36.739Z,6.18
2022-11-17T00:40:05.883Z,2.55
2022-11-17T00:42:34.140Z,3.88
2022-11-17T00:45:02.365Z,4.40
2022-11-17T00:47:30.608Z,1.83
2022-11-17T00:49:58.888Z,3.58
2022-11-17T00:52:28.477Z,3.33
2022-11-17T00:54:56.783Z,2.83
2022-11-17T00:57:25.328Z,2.92
2022-11-17T00:59:53.561Z,4.55
2022-11-17T01:02:21.805Z,5.47
2022-11-17T01:04:50.062Z,5.75
2022-11-17T01:07:18.443Z,6.47
2022-11-17T01:09:48.401Z,5.15
2022-11-17T01:12:16.655Z,3.45
2022-11-17T01:14:44.842Z,6.22
2022-11-17T01:17:13.097Z,3.70
2022-11-17T01:19:41.398Z,3.75
2022-11-17T01:22:09.621Z,6.07
2022-11-17T01:24:37.841Z,6.15
2022-11-17T01:27:07.459Z,3.42
2022-11-17T01:29:35.746Z,3.83
2022-11-17T01:32:03.969Z,4.50
2022-11-17T01:34:32.382Z,3.55
2022-11-17T01:37:17.858Z,6.75
2022-11-17T01:39:46.120Z,6.68
2022-11-17T01:42:18.201Z,4.88
2022-11-17T01:45:01.482Z,5.70
2022-11-17T01:47:37.021Z,4.03
2022-11-17T01:50:11.286Z,5.32
2022-11-17T01:52:41.115Z,6.38
2022-11-17T01:55:11.165Z,5.43
2022-11-17T01:57:46.440Z,6.35
2022-11-17T02:00:15.677Z,7.78
2022-11-17T02:02:46.502Z,7.45
2022-11-17T02:05:35.072Z,5.35
2022-11-17T02:08:07.088Z,9.57
2022-11-17T02:10:36.474Z,4.82
2022-11-17T02:13:08.806Z,5.47
2022-11-17T02:15:37.251Z,5.38
2022-11-17T02:18:06.089Z,4.80
2022-11-17T02:20:49.292Z,4.88
2022-11-17T02:23:44.921Z,5.55
2022-11-17T02:26:54.417Z,5.07
2022-11-17T02:29:29.462Z,3.95
2022-11-17T02:32:06.179Z,5.63
2022-11-17T02:34:47.003Z,5.05
2022-11-17T02:37:25.721Z,6.82
2022-11-17T02:40:00.277Z,6.07
2022-11-17T02:42:48.480Z,5.28
2022-11-17T02:45:22.036Z,6.05
2022-11-17T02:47:54.928Z,5.03
2022-11-17T02:50:28.188Z,4.38
2022-11-17T02:52:57.040Z,5.57
2022-11-17T02:55:25.274Z,4.72
2022-11-17T02:57:53.479Z,6.60
2022-11-17T03:00:23.252Z,5.65
2022-11-17T03:03:11.707Z,5.65
2022-11-17T03:05:49.668Z,7.47
2022-11-17T03:08:32.779Z,5.00
2022-11-17T03:13:40.463Z,7.55
2022-11-17T03:16:17.852Z,5.85
2022-11-17T03:18:59.588Z,7.95
2022-11-17T03:21:31.062Z,3.95
2022-11-17T03:24:05.152Z,5.82
2022-11-17T03:26:36.004Z,5.32
2022-11-17T03:29:10.075Z,7.38
2022-11-17T03:31:42.026Z,5.90
2022-11-17T03:34:14.621Z,7.90
2022-11-17T03:36:48.370Z,7.80
2022-11-17T03:39:24.099Z,5.65
2022-11-17T03:41:58.235Z,6.70
2022-11-17T03:44:30.047Z,8.52
2022-11-17T03:47:02.986Z,5.47
2022-11-17T03:49:38.192Z,9.18
2022-11-17T03:52:07.041Z,7.80
2022-11-17T03:54:36.698Z,8.50
2022-11-17T03:57:10.797Z,5.50
2022-11-17T03:59:45.654Z,7.57
2022-11-17T04:02:19.533Z,8.77
2022-11-17T04:05:05.548Z,7.30
2022-11-17T04:07:52.020Z,11.88
2022-11-17T04:11:14.755Z,6.75
2022-11-17T04:14:09.433Z,10.13
2022-11-17T04:16:37.780Z,8.82
2022-11-17T04:19:07.913Z,11.05
2022-11-17T04:21:36.307Z,8.13
2022-11-17T04:24:04.866Z,6.72
2022-11-17T04:26:50.499Z,9.43
2022-11-17T04:29:18.927Z,7.80
2022-11-17T04:31:47.251Z,7.22
2022-11-17T04:34:16.864Z,7.85
2022-11-17T04:36:45.198Z,7.88
2022-11-17T04:39:14.724Z,7.00
2022-11-17T04:41:54.751Z,6.38
2022-11-17T04:44:25.451Z,7.05
2022-11-17T04:46:54.345Z,10.07
2022-11-17T04:49:25.742Z,7.47
2022-11-17T04:51:54.810Z,7.93
2022-11-17T04:54:24.761Z,7.32
2022-11-17T04:56:53.618Z,5.90
2022-11-17T04:59:21.882Z,7.68
2022-11-17T05:01:50.457Z,7.85
2022-11-17T05:04:40.387Z,6.43
2022-11-17T05:07:10.485Z,5.78
2022-11-17T05:09:38.806Z,7.13
2022-11-17T05:12:24.966Z,5.05
2022-11-17T05:14:53.190Z,6.07
2022-11-17T05:17:20.389Z,5.85
2022-11-17T05:19:49.527Z,6.55
2022-11-17T05:22:40.147Z,7.00
2022-11-17T05:25:09.501Z,5.80
2022-11-17T05:27:37.870Z,6.10
2022-11-17T05:30:08.273Z,6.00
2022-11-17T05:32:36.483Z,5.18
2022-11-17T05:35:04.983Z,6.40
2022-11-17T05:37:34.836Z,5.50
2022-11-17T05:40:03.066Z,4.30
2022-11-17T05:42:31.244Z,4.90
2022-11-17T05:44:59.495Z,4.90
2022-11-17T05:47:27.714Z,4.72
2022-11-17T05:49:55.905Z,4.55
2022-11-17T05:52:24.073Z,4.55
2022-11-17T05:54:53.700Z,5.93
2022-11-17T05:57:30.157Z,4.43
2022-11-17T06:00:04.617Z,26.88
2022-11-17T06:02:39.504Z,65.07
2022-11-17T06:05:08.822Z,39.50
2022-11-17T06:07:37.984Z,25.63
2022-11-17T06:10:08.347Z,10.35
2022-11-17T06:12:36.605Z,4.38
2022-11-17T06:15:05.288Z,4.28
2022-11-17T06:17:37.397Z,4.70
2022-11-17T06:20:09.598Z,4.15
2022-11-17T06:22:38.241Z,4.95
2022-11-17T06:25:10.872Z,5.50
2022-11-17T06:27:40.149Z,6.80
2022-11-17T06:30:09.340Z,8.07
2022-11-17T06:32:40.252Z,7.07
2022-11-17T06:35:11.454Z,3.63
2022-11-17T06:37:39.710Z,6.40
2022-11-17T06:40:13.380Z,3.40
2022-11-17T06:42:58.789Z,4.05
2022-11-17T06:45:27.066Z,5.10
2022-11-17T06:47:55.565Z,3.85
2022-11-17T06:50:23.863Z,4.82
2022-11-17T06:52:52.227Z,3.30
2022-11-17T06:55:22.043Z,5.13
2022-11-17T06:57:53.597Z,3.40
2022-11-17T07:00:22.502Z,4.72
2022-11-17T07:02:50.768Z,2.70
2022-11-17T07:05:19.128Z,2.72
2022-11-17T07:07:47.660Z,2.95
2022-11-17T07:10:16.008Z,3.50
2022-11-17T07:12:47.256Z,3.47
2022-11-17T07:15:15.712Z,5.70
2022-11-17T07:17:44.072Z,8.70
2022-11-17T07:20:13.251Z,5.18
2022-11-17T07:22:42.406Z,4.65
2022-11-17T07:25:11.548Z,2.72
2022-11-17T07:27:40.210Z,3.10
2022-11-17T07:30:11.809Z,3.63
2022-11-17T07:32:40.113Z,3.08
2022-11-17T07:35:09.240Z,3.10
2022-11-17T07:37:37.499Z,2.20
2022-11-17T07:40:06.695Z,1.92
2022-11-17T07:42:35.322Z,3.22
2022-11-17T07:45:03.645Z,2.15
2022-11-17T07:47:33.547Z,4.45
2022-11-17T07:50:01.799Z,2.78
2022-11-17T07:52:30.116Z,3.55
2022-11-17T07:54:58.416Z,2.83
2022-11-17T07:57:28.745Z,2.55
2022-11-17T07:59:56.959Z,3.08
2022-11-17T08:02:25.254Z,2.20
2022-11-17T08:04:54.953Z,2.58
2022-11-17T08:07:23.370Z,3.08
2022-11-17T08:09:51.706Z,3.10
2022-11-17T08:12:19.991Z,3.03
2022-11-17T08:14:48.275Z,3.28
2022-11-17T08:17:17.541Z,4.05
2022-11-17T08:19:45.783Z,2.28
2022-11-17T08:22:15.397Z,2.45
2022-11-17T08:24:43.691Z,3.60
2022-11-17T08:27:12.025Z,3.67
2022-11-17T08:29:40.378Z,2.50
2022-11-17T08:32:08.684Z,4.18
2022-11-17T08:34:36.969Z,5.22
2022-11-17T08:37:05.270Z,3.03
2022-11-17T08:39:35.067Z,3.08
2022-11-17T08:42:03.736Z,2.88
2022-11-17T08:44:32.815Z,3.70
2022-11-17T08:47:01.089Z,2.80
2022-11-17T08:49:29.319Z,5.25
2022-11-17T08:51:57.559Z,5.07
2022-11-17T08:54:25.875Z,3.50
2022-11-17T08:56:59.780Z,2.55
2022-11-17T08:59:28.135Z,3.35
2022-11-17T09:01:56.433Z,9.82
2022-11-17T09:04:24.785Z,28.33
2022-11-17T09:06:53.078Z,46.22
2022-11-17T09:09:21.581Z,14.32
2022-11-17T09:11:50.170Z,9.43
2022-11-17T09:14:20.205Z,4.20
2022-11-17T09:16:48.522Z,3.65
2022-11-17T09:19:17.492Z,3.45
2022-11-17T09:21:45.891Z,4.13
2022-11-17T09:24:14.167Z,5.88
2022-11-17T09:26:43.043Z,3.72
2022-11-17T09:29:11.651Z,5.78
2022-11-17T09:31:41.390Z,3.78
2022-11-17T09:34:09.939Z,2.70
2022-11-17T09:36:38.289Z,3.83
2022-11-17T09:39:06.554Z,4.93
2022-11-17T09:41:41.934Z,3.50
2022-11-17T09:44:23.569Z,3.08
2022-11-17T09:47:16.312Z,4.15
2022-11-17T09:49:58.359Z,2.25
2022-11-17T09:52:34.599Z,4.78
2022-11-17T09:55:07.670Z,2.53
2022-11-17T09:57:46.166Z,3.25
2022-11-17T10:00:22.918Z,2.33
2022-11-17T10:02:55.422Z,4.18
2022-11-17T10:05:30.126Z,3.50
2022-11-17T10:08:07.428Z,2.00
2022-11-17T10:10:40.279Z,2.50
2022-11-17T10:13:15.654Z,3.15
2022-11-17T10:15:48.364Z,5.18
2022-11-17T10:18:18.771Z,2.72
2022-11-17T10:20:47.407Z,3.05
2022-11-17T10:23:18.370Z,3.92
2022-11-17T10:25:47.440Z,3.65
2022-11-17T10:28:29.483Z,3.90
2022-11-17T10:31:01.247Z,4.15
2022-11-17T10:33:39.729Z,2.35
2022-11-17T10:36:15.929Z,2.45
2022-11-17T10:38:46.642Z,2.15
2022-11-17T10:41:18.119Z,1.75
2022-11-17T10:43:59.351Z,2.08
2022-11-17T10:46:32.131Z,2.13
2022-11-17T10:49:25.620Z,3.55
2022-11-17T10:52:07.256Z,4.57
2022-11-17T10:54:36.793Z,3.55
2022-11-17T10:57:09.714Z,1.88
2022-11-17T10:59:45.870Z,1.25
2022-11-17T11:02:30.612Z,1.38
2022-11-17T11:05:12.509Z,3.70
2022-11-17T11:07:42.234Z,1.00
2022-11-17T11:10:17.814Z,2.88
2022-11-17T11:12:50.527Z,3.38
2022-11-17T11:15:22.230Z,1.55
2022-11-17T11:17:51.009Z,2.15
2022-11-17T11:20:25.571Z,2.47
2022-11-17T11:23:00.878Z,2.63
2022-11-17T11:25:37.497Z,4.55
2022-11-17T11:28:18.430Z,2.17
2022-11-17T11:30:56.831Z,1.80
2022-11-17T11:33:35.311Z,3.75
2022-11-17T11:36:36.399Z,1.38
2022-11-17T11:39:14.152Z,2.10
2022-11-17T11:41:57.395Z,1.90
2022-11-17T11:44:47.527Z,1.50
2022-11-17T11:47:34.504Z,2.22
2022-11-17T11:50:07.192Z,3.65
2022-11-17T11:52:41.628Z,1.90
2022-11-17T11:55:22.152Z,5.43
2022-11-17T11:57:56.128Z,3.60
2022-11-17T12:00:24.769Z,29.15
2022-11-17T12:03:00.091Z,51.00
2022-11-17T12:05:34.433Z,18.08
2022-11-17T12:08:11.272Z,14.05
2022-11-17T12:10:45.608Z,5.45
2022-11-17T12:13:15.917Z,3.97
2022-11-17T12:15:44.637Z,2.40
2022-11-17T12:18:20.420Z,2.30
2022-11-17T12:21:07.097Z,2.08
2022-11-17T12:23:58.874Z,4.22
2022-11-17T12:26:29.917Z,2.55
2022-11-17T12:29:32.855Z,2.70
2022-11-17T12:32:03.303Z,4.65
2022-11-17T12:34:36.862Z,4.03
2022-11-17T12:37:27.600Z,6.28
2022-11-17T12:40:09.845Z,5.20
2022-11-17T12:43:17.510Z,2.22
2022-11-17T12:46:05.345Z,2.20
2022-11-17T12:48:35.827Z,1.98
2022-11-17T12:51:12.339Z,3.58
2022-11-17T12:54:01.655Z,4.32
2022-11-17T12:56:43.117Z,1.98
2022-11-17T12:59:34.762Z,2.10
2022-11-17T13:02:18.574Z,40.65
2022-11-17T13:04:51.553Z,47.35
2022-11-17T13:07:21.838Z,40.05
2022-11-17T13:09:57.017Z,66.90
2022-11-17T13:12:26.990Z,22.77
2022-11-17T13:14:56.918Z,8.43
2022-11-17T13:17:29.679Z,6.45
2022-11-17T13:20:03.915Z,5.82
2022-11-17T13:22:33.581Z,4.50
2022-11-17T13:25:20.272Z,8.00
2022-11-17T13:27:54.927Z,10.98
2022-11-17T13:30:28.161Z,8.40
2022-11-17T13:32:59.391Z,6.45
2022-11-17T13:35:29.382Z,14.60
2022-11-17T13:38:06.399Z,4.88
2022-11-17T13:40:37.186Z,10.25
2022-11-17T13:43:06.939Z,6.70
2022-11-17T13:45:35.279Z,5.00
2022-11-17T14:32:50.377Z,5.03
2022-11-17T14:40:20.251Z,6.10
2022-11-17T14:42:48.480Z,6.10
2022-11-17T14:45:18.093Z,4.95
2022-11-17T14:47:47.711Z,5.78
2022-11-17T14:50:17.927Z,2.50
2022-11-17T14:52:47.133Z,2.55
2022-11-17T14:55:15.823Z,5.57
2022-11-17T14:57:45.076Z,5.82
2022-11-17T15:00:18.988Z,4.88
2022-11-17T15:02:51.169Z,5.07
2022-11-17T15:05:19.655Z,5.45
2022-11-17T15:07:50.717Z,3.58
2022-11-17T15:10:19.440Z,7.88
2022-11-17T15:12:47.696Z,7.65
2022-11-17T15:15:16.095Z,9.52
2022-11-17T15:17:44.382Z,19.80
2022-11-17T15:20:14.762Z,21.95
2022-11-17T15:22:43.073Z,11.57
2022-11-17T15:25:11.616Z,10.43
2022-11-17T15:27:39.933Z,5.70
2022-11-17T15:30:09.664Z,9.13
2022-11-17T15:32:38.406Z,4.85
2022-11-17T15:35:07.734Z,5.88
2022-11-17T15:37:37.383Z,5.35
2022-11-17T15:40:06.759Z,6.57
2022-11-17T15:42:35.022Z,4.70
2022-11-17T15:45:03.284Z,3.03
2022-11-17T15:47:31.532Z,13.40
2022-11-17T15:49:59.864Z,8.85
2022-11-17T15:52:48.744Z,5.15
2022-11-17T15:55:17.965Z,5.88
2022-11-17T15:57:46.489Z,7.63
2022-11-17T16:00:16.301Z,3.47
2022-11-17T16:02:44.785Z,3.78
2022-11-17T16:05:13.052Z,6.13
2022-11-17T16:07:41.468Z,8.15
2022-11-17T16:10:11.543Z,7.25
2022-11-17T16:12:41.410Z,7.38
2022-11-17T16:15:10.618Z,6.22
2022-11-17T16:17:38.938Z,4.25
2022-11-17T16:20:08.763Z,7.18
2022-11-17T16:22:37.086Z,5.88
2022-11-17T16:25:07.269Z,7.40
2022-11-17T16:27:35.533Z,5.78
2022-11-17T16:30:05.995Z,5.05
2022-11-17T16:32:34.378Z,5.80
2022-11-17T16:35:02.678Z,4.32
2022-11-17T16:37:30.888Z,3.05
2022-11-17T16:39:59.160Z,6.90
2022-11-17T16:42:27.397Z,3.58
2022-11-17T16:44:56.168Z,4.28
2022-11-17T16:47:26.332Z,5.38
2022-11-17T16:49:54.666Z,2.13
2022-11-17T16:52:22.979Z,4.30
2022-11-17T16:54:51.315Z,5.10
2022-11-17T16:57:19.786Z,7.85
2022-11-17T16:59:48.104Z,7.38
2022-11-17T17:02:16.295Z,7.20
2022-11-17T17:04:46.315Z,10.45
2022-11-17T17:07:15.696Z,8.05
2022-11-17T17:09:44.023Z,8.68
2022-11-17T17:12:13.016Z,5.65
2022-11-17T17:14:41.301Z,4.13
2022-11-17T17:17:09.780Z,6.15
2022-11-17T17:19:38.122Z,13.02
2022-11-17T17:22:07.817Z,15.95
2022-11-17T17:24:36.085Z,15.35
2022-11-17T17:27:05.130Z,10.27
2022-11-17T17:29:33.865Z,4.53
2022-11-17T17:32:02.259Z,6.93
2022-11-17T17:34:30.624Z,10.27
2022-11-17T17:36:58.905Z,5.35
2022-11-17T17:39:29.254Z,5.45
2022-11-17T17:41:57.460Z,6.55
2022-11-17T17:44:26.011Z,2.53
2022-11-17T17:46:54.628Z,3.33
2022-11-17T17:49:22.992Z,2.38
2022-11-17T17:51:51.352Z,6.03
2022-11-17T17:54:21.435Z,5.43
2022-11-17T17:56:51.318Z,5.45
2022-11-17T17:59:20.041Z,5.97
2022-11-17T18:01:49.684Z,4.05
2022-11-17T18:04:17.991Z,7.38
2022-11-17T18:06:48.452Z,8.75
2022-11-17T18:09:19.742Z,10.95
2022-11-17T18:11:51.320Z,9.18
2022-11-17T18:14:24.845Z,9.30
2022-11-17T18:16:54.381Z,8.27
2022-11-17T18:19:25.769Z,7.90
2022-11-17T18:21:56.777Z,9.55
2022-11-17T18:24:25.985Z,8.23
2022-11-17T18:26:55.663Z,4.75
2022-11-17T18:29:24.223Z,9.77
2022-11-17T18:31:52.467Z,7.10
2022-11-17T18:34:22.938Z,7.18
2022-11-17T18:36:55.671Z,7.07
2022-11-17T18:39:24.116Z,4.88
2022-11-17T18:41:52.367Z,7.07
2022-11-17T18:44:22.103Z,5.03
2022-11-17T18:46:50.571Z,5.82
2022-11-17T18:49:19.574Z,5.53
2022-11-17T18:51:48.306Z,6.38
2022-11-17T18:54:16.801Z,8.60
2022-11-17T18:56:45.727Z,7.90
2022-11-17T18:59:14.652Z,8.57
2022-11-17T19:01:44.793Z,7.55
2022-11-17T19:04:15.012Z,8.38
2022-11-17T19:06:43.367Z,9.68
2022-11-17T19:09:11.824Z,7.00
2022-11-17T19:11:40.159Z,6.15
2022-11-17T19:14:08.766Z,7.32
2022-11-17T19:16:44.036Z,7.50
2022-11-17T19:19:15.662Z,5.07
2022-11-17T19:21:44.525Z,6.65
2022-11-17T19:24:12.939Z,8.90
2022-11-17T19:26:41.234Z,5.63
2022-11-17T19:29:16.734Z,6.47
2022-11-17T19:31:45.976Z,6.13
2022-11-17T19:34:17.418Z,9.68
2022-11-17T19:36:45.947Z,7.50
2022-11-17T19:39:15.447Z,5.25
2022-11-17T19:41:45.090Z,4.68
2022-11-17T19:44:13.582Z,8.35
2022-11-17T19:46:42.664Z,8.60
2022-11-17T19:49:12.465Z,6.18
2022-11-17T19:51:42.374Z,5.40
2022-11-17T19:54:13.026Z,7.57
2022-11-17T19:56:41.308Z,9.02
2022-11-17T19:59:15.620Z,7.25
2022-11-17T20:01:44.900Z,7.63
2022-11-17T20:04:13.331Z,6.57
2022-11-17T20:06:42.966Z,8.07
2022-11-17T20:09:13.373Z,6.85
2022-11-17T20:11:42.579Z,7.60
2022-11-17T20:14:10.871Z,7.05
2022-11-17T20:16:39.634Z,7.63
2022-11-17T20:19:08.021Z,7.07
2022-11-17T20:21:36.413Z,8.20
2022-11-17T20:24:06.834Z,6.80
2022-11-17T20:26:36.491Z,7.40
2022-11-17T20:29:05.023Z,7.05
2022-11-17T20:31:35.295Z,9.50
2022-11-17T20:34:05.607Z,6.45
2022-11-17T20:36:35.277Z,9.90
2022-11-17T20:39:06.678Z,6.88
2022-11-17T20:41:35.731Z,5.43
2022-11-17T20:44:04.371Z,7.53
2022-11-17T20:46:32.654Z,6.40
2022-11-17T20:49:01.529Z,7.72
2022-11-17T20:51:29.853Z,8.43
2022-11-17T20:53:58.112Z,7.15
2022-11-17T20:56:27.711Z,7.28
2022-11-17T20:58:55.933Z,9.27
2022-11-17T21:01:24.478Z,9.20
2022-11-17T21:03:53.353Z,7.60
2022-11-17T21:06:23.099Z,5.85
2022-11-17T21:08:51.663Z,8.48
2022-11-17T21:11:35.659Z,7.95
2022-11-17T21:14:06.631Z,5.97
2022-11-17T21:16:36.730Z,7.60
2022-11-17T21:19:05.368Z,8.25
2022-11-17T21:21:33.698Z,6.43
2022-11-17T21:24:02.049Z,10.95
2022-11-17T21:26:30.432Z,6.78
2022-11-17T21:29:04.784Z,6.50
2022-11-17T21:31:36.942Z,7.50
2022-11-17T21:34:07.507Z,10.13
2022-11-17T21:36:36.944Z,6.75
2022-11-17T21:39:05.724Z,8.65
2022-11-17T21:41:36.263Z,7.88
2022-11-17T21:44:04.987Z,7.82
2022-11-17T21:46:36.451Z,10.55
2022-11-17T21:49:05.555Z,12.27
2022-11-17T21:51:38.514Z,8.48
2022-11-17T21:54:09.117Z,8.82
2022-11-17T21:56:38.169Z,9.70
2022-11-17T21:59:08.539Z,11.63
2022-11-17T22:01:38.670Z,8.70
2022-11-17T22:04:07.538Z,10.10
2022-11-17T22:06:36.058Z,10.40
2022-11-17T22:09:04.916Z,8.95
2022-11-17T22:11:36.996Z,7.20
2022-11-17T22:14:11.878Z,11.70
2022-11-17T22:16:42.966Z,10.07
2022-11-17T22:19:12.979Z,7.00
2022-11-17T22:21:42.336Z,9.57
2022-11-17T22:24:13.018Z,8.13
2022-11-17T22:26:42.741Z,10.10
2022-11-17T22:29:14.713Z,9.20
2022-11-17T22:31:45.335Z,10.52
2022-11-17T22:34:14.328Z,8.88
2022-11-17T22:36:42.893Z,8.32
2022-11-17T22:39:11.355Z,12.20
2022-11-17T22:41:39.682Z,11.50
2022-11-17T22:44:08.493Z,8.07
2022-11-17T22:46:36.958Z,9.88
2022-11-17T22:49:06.620Z,9.65
2022-11-17T22:51:52.264Z,11.18
2022-11-17T22:54:20.766Z,11.60
2022-11-17T22:56:49.063Z,11.20
2022-11-17T22:59:17.677Z,11.90
2022-11-17T23:01:46.300Z,8.55
2022-11-17T23:04:16.489Z,9.70
2022-11-17T23:06:45.122Z,10.18
2022-11-17T23:09:13.488Z,14.25
2022-11-17T23:11:41.924Z,13.15
2022-11-17T23:14:13.443Z,9.23
2022-11-17T23:16:42.010Z,12.48
2022-11-17T23:19:14.040Z,11.40
2022-11-17T23:21:43.859Z,11.32
2022-11-17T23:24:14.622Z,11.43
2022-11-17T23:26:43.578Z,12.65
2022-11-17T23:29:12.201Z,11.43
2022-11-17T23:31:40.815Z,11.68
2022-11-17T23:34:10.727Z,12.65
2022-11-17T23:36:39.210Z,8.82
2022-11-17T23:39:08.951Z,10.73
2022-11-17T23:41:37.231Z,10.32
2022-11-17T23:44:06.069Z,12.98
2022-11-17T23:46:34.296Z,11.23
2022-11-17T23:49:02.708Z,9.93
2022-11-17T23:51:31.306Z,9.80
2022-11-17T23:54:00.550Z,10.43
2022-11-17T23:56:33.641Z,9.40
2022-11-17T23:59:02.250Z,13.82
